createdAt,value
2022-12-29T00:00:16.782Z,52.94
2022-12-29T00:02:45.273Z,52.36
2022-12-29T00:05:13.918Z,53.97
2022-12-29T00:07:42.388Z,53.45
2022-12-29T00:10:10.757Z,54.12
2022-12-29T00:12:57.948Z,53.98
2022-12-29T00:15:38.727Z,53.81
2022-12-29T00:18:08.509Z,52.62
2022-12-29T00:20:56.581Z,53.44
2022-12-29T00:23:43.841Z,53.64
2022-12-29T00:26:36.251Z,52.60
2022-12-29T00:29:23.113Z,52.46
2022-12-29T00:32:10.411Z,52.76
2022-12-29T00:34:57.323Z,52.48
2022-12-29T00:37:46.571Z,52.54
2022-12-29T00:40:33.606Z,53.08
2022-12-29T00:43:20.673Z,53.48
2022-12-29T00:45:49.214Z,53.74
2022-12-29T00:48:37.636Z,53.06
2022-12-29T00:51:06.535Z,53.21
2022-12-29T00:53:35.949Z,53.41
2022-12-29T00:56:04.810Z,53.62
2022-12-29T00:58:33.297Z,55.34
2022-12-29T01:01:06.801Z,55.27
2022-12-29T01:03:37.835Z,53.92
2022-12-29T01:06:10.996Z,53.78
2022-12-29T01:08:39.551Z,53.20
2022-12-29T01:11:11.813Z,53.76
2022-12-29T01:13:42.138Z,53.45
2022-12-29T01:16:10.714Z,53.22
2022-12-29T01:18:39.229Z,53.79
2022-12-29T01:21:07.827Z,53.34
2022-12-29T01:23:36.340Z,53.91
2022-12-29T01:26:16.538Z,52.89
2022-12-29T01:28:45.468Z,52.29
2022-12-29T01:31:16.013Z,52.69
2022-12-29T01:33:44.987Z,52.48
2022-12-29T01:36:16.209Z,52.03
2022-12-29T01:38:45.951Z,52.11
2022-12-29T01:41:16.575Z,51.91
2022-12-29T01:43:48.767Z,52.17
2022-12-29T01:46:31.419Z,51.58
2022-12-29T01:49:05.366Z,51.21
2022-12-29T01:51:39.522Z,50.41
2022-12-29T01:54:14.024Z,50.41
2022-12-29T01:56:43.246Z,50.34
2022-12-29T01:59:18.682Z,50.58
2022-12-29T02:01:47.679Z,50.62
2022-12-29T02:04:16.699Z,50.88
2022-12-29T02:06:54.382Z,50.39
2022-12-29T02:09:24.632Z,50.00
2022-12-29T02:11:53.341Z,50.18
2022-12-29T02:14:21.846Z,50.54
2022-12-29T02:17:02.449Z,51.29
2022-12-29T02:19:56.731Z,51.43
2022-12-29T02:22:46.760Z,51.28
2022-12-29T02:25:39.507Z,50.85
2022-12-29T02:28:10.882Z,49.96
2022-12-29T02:31:08.529Z,50.20
2022-12-29T02:34:05.668Z,49.87
2022-12-29T02:36:42.025Z,50.59
2022-12-29T02:39:28.188Z,50.13
2022-12-29T02:42:09.903Z,49.86
2022-12-29T02:44:47.171Z,50.96
2022-12-29T02:47:42.682Z,50.75
2022-12-29T02:50:17.043Z,51.32
2022-12-29T02:52:55.692Z,51.53
2022-12-29T02:55:24.269Z,50.13
2022-12-29T02:58:20.465Z,50.04
2022-12-29T03:01:03.180Z,50.23
2022-12-29T03:03:56.242Z,49.45
2022-12-29T03:06:52.862Z,50.02
2022-12-29T03:09:28.292Z,51.24
2022-12-29T03:12:46.592Z,50.67
2022-12-29T03:15:43.596Z,51.01
2022-12-29T03:18:24.245Z,50.15
2022-12-29T03:21:03.511Z,49.58
2022-12-29T03:23:35.038Z,49.49
2022-12-29T03:26:09.302Z,50.17
2022-12-29T03:28:44.199Z,51.97
2022-12-29T03:31:15.305Z,52.23
2022-12-29T03:33:45.954Z,52.09
2022-12-29T03:36:22.544Z,51.35
2022-12-29T03:39:01.627Z,52.02
2022-12-29T03:41:34.779Z,51.61
2022-12-29T03:44:07.583Z,51.22
2022-12-29T03:46:36.371Z,50.43
2022-12-29T03:49:04.856Z,50.89
2022-12-29T03:51:33.331Z,51.37
2022-12-29T03:54:03.073Z,50.92
2022-12-29T03:56:31.567Z,50.60
2022-12-29T03:58:59.985Z,51.67
2022-12-29T04:01:28.722Z,51.92
2022-12-29T04:03:57.292Z,52.22
2022-12-29T04:06:25.764Z,52.87
2022-12-29T04:08:54.224Z,51.76
2022-12-29T04:11:26.062Z,52.90
2022-12-29T04:13:56.825Z,52.28
2022-12-29T04:16:25.544Z,51.75
2022-12-29T04:18:54.222Z,51.67
2022-12-29T04:21:22.660Z,51.45
2022-12-29T04:23:51.207Z,52.18
2022-12-29T04:26:19.721Z,52.57
2022-12-29T04:28:48.095Z,52.56
2022-12-29T04:31:17.633Z,53.60
2022-12-29T04:33:47.295Z,53.74
2022-12-29T04:36:15.925Z,51.99
2022-12-29T04:38:44.425Z,51.30
2022-12-29T04:41:12.854Z,52.15
2022-12-29T04:43:42.262Z,51.21
2022-12-29T04:46:10.782Z,51.25
2022-12-29T04:48:39.241Z,50.41
2022-12-29T04:51:07.585Z,49.98
2022-12-29T04:53:36.049Z,49.95
2022-12-29T04:56:04.899Z,49.41
2022-12-29T04:58:33.628Z,50.45
2022-12-29T05:01:02.125Z,49.26
2022-12-29T05:03:30.636Z,49.18
2022-12-29T05:06:00.150Z,49.54
2022-12-29T05:08:28.839Z,50.58
2022-12-29T05:10:57.390Z,50.35
2022-12-29T05:13:25.796Z,49.83
2022-12-29T05:15:54.763Z,49.74
2022-12-29T05:18:24.208Z,51.11
2022-12-29T05:20:52.734Z,51.25
2022-12-29T05:23:21.448Z,51.67
2022-12-29T05:25:50.039Z,50.52
2022-12-29T05:28:18.633Z,49.90
2022-12-29T05:30:51.022Z,50.01
2022-12-29T05:33:20.180Z,50.05
2022-12-29T05:35:48.818Z,51.29
2022-12-29T05:38:17.241Z,51.07
2022-12-29T05:40:46.893Z,50.16
2022-12-29T05:43:15.408Z,50.02
2022-12-29T05:45:43.793Z,49.99
2022-12-29T05:48:13.210Z,50.28
2022-12-29T05:50:41.700Z,49.59
2022-12-29T05:53:11.195Z,49.21
2022-12-29T05:55:46.599Z,49.34
2022-12-29T05:58:18.280Z,49.22
2022-12-29T06:00:46.780Z,48.29
2022-12-29T06:03:15.454Z,48.63
2022-12-29T06:05:46.635Z,49.42
2022-12-29T06:08:15.153Z,49.69
2022-12-29T06:10:43.632Z,50.06
2022-12-29T06:13:12.178Z,48.71
2022-12-29T06:15:40.736Z,49.58
2022-12-29T06:18:12.633Z,48.99
2022-12-29T06:20:45.128Z,48.33
2022-12-29T06:23:14.151Z,47.93
2022-12-29T06:25:42.608Z,47.71
2022-12-29T06:28:11.701Z,48.30
2022-12-29T06:30:40.785Z,48.64
2022-12-29T06:33:09.536Z,47.08
2022-12-29T06:35:38.926Z,46.32
2022-12-29T06:38:07.408Z,47.98
2022-12-29T06:40:35.913Z,47.96
2022-12-29T06:43:04.503Z,47.59
2022-12-29T06:45:33.049Z,47.13
2022-12-29T06:48:01.706Z,47.19
2022-12-29T06:50:30.125Z,48.25
2022-12-29T06:52:58.679Z,47.66
2022-12-29T06:55:27.149Z,46.65
2022-12-29T06:57:57.338Z,47.05
2022-12-29T07:00:26.155Z,46.93
2022-12-29T07:02:57.276Z,46.74
2022-12-29T07:05:28.544Z,46.30
2022-12-29T07:07:57.006Z,46.87
2022-12-29T07:10:25.480Z,47.28
2022-12-29T07:12:54.093Z,47.92
2022-12-29T07:15:22.731Z,47.34
2022-12-29T07:17:51.320Z,46.67
2022-12-29T07:20:26.334Z,46.18
2022-12-29T07:22:55.233Z,46.18
2022-12-29T07:25:24.185Z,46.92
2022-12-29T07:27:52.648Z,47.44
2022-12-29T07:30:21.221Z,46.65
2022-12-29T07:32:49.767Z,46.79
2022-12-29T07:35:18.207Z,46.63
2022-12-29T07:37:46.790Z,45.95
2022-12-29T07:40:15.369Z,46.92
2022-12-29T07:42:43.971Z,45.72
2022-12-29T07:45:12.808Z,45.01
2022-12-29T07:47:41.371Z,45.29
2022-12-29T07:50:09.775Z,45.57
2022-12-29T07:52:38.403Z,45.08
2022-12-29T07:55:07.490Z,45.10
2022-12-29T07:57:36.057Z,45.21
2022-12-29T08:00:04.953Z,45.57
2022-12-29T08:02:33.553Z,44.55
2022-12-29T08:05:02.659Z,45.45
2022-12-29T08:07:31.103Z,44.87
2022-12-29T08:09:59.826Z,44.56
2022-12-29T08:12:28.293Z,44.47
2022-12-29T08:14:56.702Z,44.66
2022-12-29T08:17:25.103Z,45.62
2022-12-29T08:19:53.565Z,44.48
2022-12-29T08:22:22.096Z,44.57
2022-12-29T08:24:50.693Z,44.40
2022-12-29T08:27:21.045Z,44.72
2022-12-29T08:29:49.925Z,44.04
2022-12-29T08:32:18.755Z,44.01
2022-12-29T08:34:47.482Z,45.18
2022-12-29T08:37:15.929Z,44.93
2022-12-29T08:39:44.399Z,44.12
2022-12-29T08:42:12.957Z,44.73
2022-12-29T08:44:41.503Z,44.45
2022-12-29T08:47:11.995Z,43.85
2022-12-29T08:49:40.541Z,45.59
2022-12-29T08:52:09.195Z,44.84
2022-12-29T08:54:37.635Z,44.17
2022-12-29T08:57:06.147Z,44.44
2022-12-29T08:59:34.615Z,45.19
2022-12-29T09:02:03.361Z,44.60
2022-12-29T09:04:32.208Z,43.56
2022-12-29T09:07:00.884Z,43.62
2022-12-29T09:09:29.518Z,44.38
2022-12-29T09:11:57.979Z,43.64
2022-12-29T09:14:27.529Z,43.32
2022-12-29T09:17:14.526Z,44.46
2022-12-29T09:19:42.947Z,44.12
2022-12-29T09:22:11.498Z,44.76
2022-12-29T09:24:45.092Z,44.18
2022-12-29T09:27:13.520Z,43.69
2022-12-29T09:29:42.981Z,44.00
2022-12-29T09:32:18.780Z,44.56
2022-12-29T09:34:48.473Z,44.77
2022-12-29T09:37:19.211Z,45.37
2022-12-29T09:39:52.312Z,44.98
2022-12-29T09:42:34.215Z,45.21
2022-12-29T09:45:13.311Z,46.70
2022-12-29T09:47:44.731Z,46.35
2022-12-29T09:50:39.194Z,45.53
2022-12-29T09:53:23.691Z,47.38
2022-12-29T09:55:55.987Z,47.36
2022-12-29T09:58:50.676Z,46.27
2022-12-29T10:01:43.956Z,47.32
2022-12-29T10:04:13.722Z,46.40
2022-12-29T10:07:27.563Z,47.93
2022-12-29T10:09:51.974Z,47.00
2022-12-29T10:13:01.435Z,48.46
2022-12-29T10:16:04.008Z,47.20
2022-12-29T10:19:10.289Z,48.99
2022-12-29T10:22:02.144Z,48.71
2022-12-29T10:24:33.481Z,50.12
2022-12-29T10:27:02.741Z,51.32
2022-12-29T10:29:37.918Z,50.12
2022-12-29T10:32:32.628Z,49.13
2022-12-29T10:35:21.135Z,50.01
2022-12-29T10:38:30.324Z,50.13
2022-12-29T10:41:21.614Z,49.74
2022-12-29T10:43:53.868Z,50.03
2022-12-29T10:46:26.293Z,51.69
2022-12-29T10:48:54.722Z,49.99
2022-12-29T10:51:34.449Z,50.11
2022-12-29T10:54:14.358Z,50.83
2022-12-29T10:57:01.137Z,50.30
2022-12-29T10:59:32.280Z,51.19
2022-12-29T11:02:10.081Z,51.99
2022-12-29T11:05:03.043Z,51.22
2022-12-29T11:07:32.065Z,51.31
2022-12-29T11:10:41.799Z,50.07
2022-12-29T11:13:26.011Z,50.99
2022-12-29T11:15:54.517Z,52.20
2022-12-29T11:18:43.434Z,51.43
2022-12-29T11:21:35.548Z,50.96
2022-12-29T11:24:07.132Z,51.40
2022-12-29T11:26:35.576Z,49.94
2022-12-29T11:29:27.183Z,51.29
2022-12-29T11:31:59.979Z,49.85
2022-12-29T11:34:34.660Z,50.04
2022-12-29T11:37:11.981Z,50.80
2022-12-29T11:39:49.572Z,49.02
2022-12-29T11:42:23.338Z,48.97
2022-12-29T11:44:53.219Z,49.00
2022-12-29T11:47:32.008Z,49.60
2022-12-29T11:50:04.515Z,49.85
2022-12-29T11:52:36.583Z,49.31
2022-12-29T11:55:08.159Z,50.47
2022-12-29T11:57:36.947Z,48.65
2022-12-29T12:00:20.980Z,48.00
2022-12-29T12:02:59.997Z,48.31
2022-12-29T12:05:38.653Z,48.03
2022-12-29T12:08:52.635Z,48.33
2022-12-29T12:11:44.363Z,47.82
2022-12-29T12:14:15.724Z,47.75
2022-12-29T12:16:49.146Z,47.57
2022-12-29T12:19:47.840Z,46.55
2022-12-29T12:22:48.362Z,46.53
2022-12-29T12:25:25.905Z,47.02
2022-12-29T12:28:10.722Z,46.26
2022-12-29T12:30:44.677Z,46.09
2022-12-29T12:33:38.331Z,45.94
2022-12-29T12:36:54.383Z,46.07
2022-12-29T12:39:35.189Z,46.53
2022-12-29T12:42:37.350Z,45.34
2022-12-29T12:45:20.740Z,45.81
2022-12-29T12:48:10.393Z,44.78
2022-12-29T12:50:50.763Z,45.68
2022-12-29T12:53:54.552Z,45.50
2022-12-29T12:56:29.018Z,45.59
2022-12-29T12:59:12.001Z,44.78
2022-12-29T13:02:14.274Z,44.28
2022-12-29T13:05:08.818Z,46.24
2022-12-29T13:07:55.495Z,46.72
2022-12-29T13:10:42.541Z,46.63
2022-12-29T13:13:11.007Z,45.68
2022-12-29T13:15:56.396Z,45.32
2022-12-29T13:18:42.116Z,45.51
2022-12-29T13:21:22.685Z,45.77
2022-12-29T13:24:06.308Z,48.65
2022-12-29T13:26:47.260Z,49.51
2022-12-29T13:29:25.713Z,47.77
2022-12-29T13:32:15.048Z,48.26
2022-12-29T13:35:00.667Z,48.79
2022-12-29T13:37:32.559Z,51.37
2022-12-29T13:40:10.958Z,49.88
2022-12-29T13:42:40.545Z,50.75
2022-12-29T13:45:17.573Z,50.01
2022-12-29T13:48:14.314Z,51.37
2022-12-29T13:50:47.524Z,51.81
2022-12-29T13:53:20.294Z,51.14
2022-12-29T13:56:09.928Z,49.98
2022-12-29T13:58:54.342Z,49.25
2022-12-29T14:01:30.958Z,49.37
2022-12-29T14:04:01.820Z,51.14
2022-12-29T14:06:31.571Z,52.05
2022-12-29T14:09:02.792Z,50.99
2022-12-29T14:11:36.818Z,50.97
2022-12-29T14:14:42.951Z,51.20
2022-12-29T14:17:15.341Z,50.55
2022-12-29T14:19:45.657Z,50.75
2022-12-29T14:22:14.231Z,50.77
2022-12-29T14:24:46.467Z,50.19
2022-12-29T14:27:14.883Z,50.17
2022-12-29T14:29:48.732Z,49.87
2022-12-29T14:32:26.304Z,50.43
2022-12-29T14:34:57.083Z,50.65
2022-12-29T14:37:35.469Z,50.12
2022-12-29T14:40:36.680Z,51.56
2022-12-29T14:43:14.874Z,49.54
2022-12-29T14:45:43.839Z,48.86
2022-12-29T14:48:36.732Z,49.45
2022-12-29T14:51:28.034Z,49.92
2022-12-29T14:53:56.586Z,49.08
2022-12-29T14:56:32.158Z,49.36
2022-12-29T14:59:10.439Z,48.79
2022-12-29T15:01:49.469Z,48.44
2022-12-29T15:04:26.097Z,49.64
2022-12-29T15:06:55.456Z,48.68
2022-12-29T15:10:01.105Z,50.22
2022-12-29T15:12:38.667Z,49.04
2022-12-29T15:15:22.126Z,49.21
2022-12-29T15:17:52.793Z,49.46
2022-12-29T15:20:32.425Z,48.16
2022-12-29T15:23:11.684Z,48.44
2022-12-29T15:25:51.714Z,48.53
2022-12-29T15:28:22.269Z,49.25
2022-12-29T15:30:53.880Z,49.02
2022-12-29T15:33:26.435Z,48.53
2022-12-29T15:35:57.082Z,48.31
2022-12-29T15:38:34.670Z,49.51
2022-12-29T15:41:33.177Z,48.74
2022-12-29T15:44:05.986Z,48.79
2022-12-29T15:46:34.547Z,48.42
2022-12-29T15:49:08.505Z,48.46
2022-12-29T15:51:39.416Z,48.15
2022-12-29T15:54:18.461Z,48.32
2022-12-29T15:56:47.652Z,48.64
2022-12-29T15:59:35.269Z,48.91
2022-12-29T16:02:08.739Z,49.91
2022-12-29T16:05:09.146Z,49.62
2022-12-29T16:07:41.709Z,49.65
2022-12-29T16:10:31.358Z,48.15
2022-12-29T16:13:06.693Z,48.15
2022-12-29T16:15:35.423Z,48.32
2022-12-29T16:18:04.153Z,47.67
2022-12-29T16:20:41.013Z,47.79
2022-12-29T16:23:24.980Z,47.57
2022-12-29T16:25:55.661Z,47.98
2022-12-29T16:28:40.936Z,48.57
2022-12-29T16:31:23.025Z,47.71
2022-12-29T16:33:54.567Z,48.92
2022-12-29T16:36:34.874Z,47.64
2022-12-29T16:39:15.272Z,47.35
2022-12-29T16:41:43.785Z,47.46
2022-12-29T16:44:23.751Z,47.20
2022-12-29T16:47:10.473Z,47.98
2022-12-29T16:49:47.853Z,47.63
2022-12-29T16:52:30.650Z,47.20
2022-12-29T16:55:02.177Z,46.69
2022-12-29T16:57:37.654Z,46.46
2022-12-29T17:00:18.726Z,48.40
2022-12-29T17:02:50.411Z,46.91
2022-12-29T17:05:20.159Z,46.24
2022-12-29T17:07:48.905Z,46.96
2022-12-29T17:10:17.859Z,46.54
2022-12-29T17:12:49.529Z,46.04
2022-12-29T17:15:35.155Z,47.71
2022-12-29T17:18:10.104Z,47.34
2022-12-29T17:20:43.233Z,48.03
2022-12-29T17:23:19.913Z,47.14
2022-12-29T17:25:51.681Z,46.48
2022-12-29T17:28:29.775Z,46.19
2022-12-29T17:31:03.797Z,46.89
2022-12-29T17:33:43.407Z,48.16
2022-12-29T17:36:13.092Z,47.27
2022-12-29T17:38:41.633Z,46.73
2022-12-29T17:41:15.112Z,47.74
2022-12-29T17:43:43.658Z,48.05
2022-12-29T17:46:12.356Z,48.14
2022-12-29T17:48:40.853Z,47.53
2022-12-29T17:51:11.877Z,46.77
2022-12-29T17:53:40.353Z,46.58
2022-12-29T17:56:10.204Z,47.26
2022-12-29T17:58:38.863Z,46.81
2022-12-29T18:01:07.578Z,47.03
2022-12-29T18:03:38.505Z,47.03
2022-12-29T18:06:10.255Z,47.22
2022-12-29T18:08:41.147Z,47.61
2022-12-29T18:11:22.273Z,48.38
2022-12-29T18:13:52.381Z,47.83
2022-12-29T18:16:23.164Z,48.73
2022-12-29T18:18:51.807Z,47.97
2022-12-29T18:21:22.313Z,48.73
2022-12-29T18:23:51.287Z,47.70
2022-12-29T18:26:28.260Z,47.43
2022-12-29T18:28:58.661Z,48.18
2022-12-29T18:31:32.691Z,48.92
2022-12-29T18:34:07.460Z,48.19
2022-12-29T18:36:35.908Z,49.08
2022-12-29T18:39:04.489Z,48.57
2022-12-29T18:41:33.475Z,48.25
2022-12-29T18:44:02.034Z,48.02
2022-12-29T18:46:30.565Z,47.46
2022-12-29T18:48:59.227Z,48.35
2022-12-29T18:51:27.705Z,47.74
2022-12-29T18:53:56.194Z,48.23
2022-12-29T18:56:24.791Z,49.24
2022-12-29T18:58:53.674Z,49.26
2022-12-29T19:01:24.995Z,49.40
2022-12-29T19:03:54.326Z,48.86
2022-12-29T19:06:22.911Z,49.61
2022-12-29T19:08:51.534Z,49.03
2022-12-29T19:11:20.009Z,48.76
2022-12-29T19:13:48.492Z,49.26
2022-12-29T19:16:21.772Z,48.86
2022-12-29T19:19:07.833Z,50.04
2022-12-29T19:21:37.690Z,49.03
2022-12-29T19:24:06.732Z,48.60
2022-12-29T19:26:38.186Z,50.11
2022-12-29T19:29:15.026Z,49.19
2022-12-29T19:31:43.570Z,48.24
2022-12-29T19:34:15.790Z,48.24
2022-12-29T19:36:45.485Z,48.46
2022-12-29T19:39:15.009Z,48.88
2022-12-29T19:41:44.500Z,47.96
2022-12-29T19:44:14.361Z,49.83
2022-12-29T19:46:42.982Z,49.88
2022-12-29T19:49:11.715Z,48.43
2022-12-29T19:51:40.148Z,48.21
2022-12-29T19:54:08.634Z,48.11
2022-12-29T19:56:38.243Z,49.53
2022-12-29T19:59:06.829Z,48.19
2022-12-29T20:01:36.402Z,47.79
2022-12-29T20:04:05.092Z,48.18
2022-12-29T20:06:33.566Z,47.48
2022-12-29T20:09:03.008Z,47.57
2022-12-29T20:11:32.999Z,46.91
2022-12-29T20:14:02.005Z,46.76
2022-12-29T20:16:31.788Z,48.83
2022-12-29T20:19:01.448Z,48.48
2022-12-29T20:21:30.865Z,48.32
2022-12-29T20:23:59.294Z,49.37
2022-12-29T20:26:29.326Z,48.64
2022-12-29T20:29:02.896Z,47.88
2022-12-29T20:31:40.581Z,47.02
2022-12-29T20:34:10.803Z,46.65
2022-12-29T20:36:42.246Z,48.93
2022-12-29T20:39:15.348Z,46.95
2022-12-29T20:41:44.867Z,47.01
2022-12-29T20:44:13.665Z,47.39
2022-12-29T20:46:44.131Z,47.01
2022-12-29T20:49:14.033Z,47.97
2022-12-29T20:52:06.319Z,48.88
2022-12-29T20:54:39.021Z,47.32
2022-12-29T20:57:08.328Z,47.37
2022-12-29T20:59:37.288Z,46.93
2022-12-29T21:02:06.674Z,46.23
2022-12-29T21:05:05.379Z,47.44
2022-12-29T21:07:23.893Z,46.80
2022-12-29T21:09:52.453Z,47.03
2022-12-29T21:12:21.060Z,46.87
2022-12-29T21:14:49.550Z,47.00
2022-12-29T21:17:19.112Z,47.67
2022-12-29T21:19:48.755Z,48.14
2022-12-29T21:22:17.199Z,47.61
2022-12-29T21:24:45.757Z,47.79
2022-12-29T21:27:14.314Z,47.44
2022-12-29T21:29:43.738Z,47.90
2022-12-29T21:32:12.285Z,47.73
2022-12-29T21:34:43.011Z,46.75
2022-12-29T21:37:11.646Z,46.94
2022-12-29T21:39:40.188Z,48.46
2022-12-29T21:42:09.774Z,48.12
2022-12-29T21:44:56.607Z,47.91
2022-12-29T21:47:25.189Z,48.87
2022-12-29T21:49:53.680Z,48.00
2022-12-29T21:52:22.159Z,48.37
2022-12-29T21:55:03.936Z,48.09
2022-12-29T21:57:51.052Z,48.32
2022-12-29T22:00:37.874Z,47.30
2022-12-29T22:03:24.815Z,47.19
2022-12-29T22:06:12.965Z,46.66
2022-12-29T22:09:00.367Z,47.91
2022-12-29T22:11:47.923Z,47.75
2022-12-29T22:14:16.442Z,47.97
2022-12-29T22:16:45.875Z,47.41
2022-12-29T22:19:15.781Z,47.44
2022-12-29T22:21:44.329Z,46.42
2022-12-29T22:24:13.340Z,46.14
2022-12-29T22:26:41.794Z,46.48
2022-12-29T22:29:10.357Z,46.36
2022-12-29T22:31:38.942Z,45.98
2022-12-29T22:34:08.526Z,46.27
2022-12-29T22:36:36.961Z,46.15
2022-12-29T22:39:05.421Z,45.75
2022-12-29T22:41:33.970Z,45.98
2022-12-29T22:44:02.655Z,45.98
2022-12-29T22:46:31.316Z,46.06
2022-12-29T22:49:00.113Z,46.44
2022-12-29T22:51:28.701Z,46.88
2022-12-29T22:53:58.045Z,46.44
2022-12-29T22:56:26.584Z,46.68
2022-12-29T22:58:55.041Z,48.28
2022-12-29T23:01:23.707Z,46.74
2022-12-29T23:03:52.363Z,46.29
2022-12-29T23:06:20.943Z,46.66
2022-12-29T23:08:49.457Z,45.84
2022-12-29T23:11:17.988Z,47.64
2022-12-29T23:13:46.820Z,46.60
2022-12-29T23:16:16.538Z,46.42
2022-12-29T23:18:47.400Z,46.50
2022-12-29T23:21:19.896Z,46.88
2022-12-29T23:23:54.916Z,46.68
2022-12-29T23:26:26.885Z,46.42
2022-12-29T23:28:59.958Z,47.02
2022-12-29T23:31:31.100Z,47.00
2022-12-29T23:34:01.093Z,46.91
2022-12-29T23:36:30.344Z,46.98
2022-12-29T23:38:58.872Z,47.04
2022-12-29T23:41:27.729Z,46.83
2022-12-29T23:43:57.661Z,46.48
2022-12-29T23:46:29.256Z,46.33
2022-12-29T23:48:57.890Z,46.22
2022-12-29T23:51:26.396Z,46.33
2022-12-29T23:53:57.942Z,46.37
2022-12-29T23:56:26.488Z,46.05
2022-12-29T23:58:55.089Z,46.11
